Startpagina
METAR-TAF:

METAR-TAF

Vliegvelden :

Luchthaven Pointe-Noire

Pointe-Noire, Congo

breedte: 04-49S, lengte: 011-54E, hoogte: 17 m

Actueel weer

Dit bericht is 44 minuten geleden gemaakt, om 16:00 UTC
Wind 10 kt uit het zuidzuidwesten
Temperatuur 26°C
Vochtigheid 89%
Druk 1010 hPa
Zicht: 8000 m
Verspreide wolken op 1000 ft
Gebroken wolken op 2300 ft

METAR: FCPP 171600Z 20010KT 8000 SCT010 BKN023 26/24 Q1010 NOSIG

Tijdstip: 17:44 (16:44 UTC)

Verwachting

Dit bericht is 5 uur en het 44 minuten geleden gemaakt, om 11:00 UTC
Verwachting geldig van 17 om 12 UTC tot 18 om 12 UTC
Wind 7 kt uit het zuidwesten
Zicht 10 km of meer
Verspreide wolken op 1300 ft
Gebroken wolken op 2600 ft

TAF: FCPP 171100Z 1712/1812 22007KT 9999 SCT013 BKN026

Waarnemingen en weersverwachtingen van meer dan 4000 vliegvelden (METAR en TAF).

De beschikbare stations zijn de gele en rode punten op de kaart.

Ga met uw muis naar het station om de naam te zien.

Klik dan om waarnemingen en weersverwachtingen te zien.

kaart wijzigen: klik op de groene knoppen met een zwart kruis om in te zoomen, op de groene knop met een streepje om uit te zoomen of op de groene pijlen voor aangrenzende kaarten.


METAR-TAF: